Time,TemperatureF,DewpointF,PressureIn,WindDirection,WindDirectionDegrees,WindSpeedMPH,WindSpeedGustMPH,Humidity,HourlyPrecipIn,Conditions,Clouds,dailyrainin,SoftwareType,DateUTC
2013-06-01 00:00:00,53.4,49.3,29.29,NE,45,0.0,0.6,86,0.10,,,-99.99,VWS V12.07,2013-06-01 05:00:00,
2013-06-01 00:05:00,53.4,49.3,29.29,NE,45,0.0,0.0,86,0.10,,,-99.99,VWS V12.07,2013-06-01 05:05:00,
2013-06-01 00:10:00,53.4,49.3,29.29,NE,45,0.0,0.0,86,0.10,,,-99.99,VWS V12.07,2013-06-01 05:10:00,
2013-06-01 00:15:00,53.4,49.3,29.30,NE,45,0.0,0.0,86,0.10,,,-99.99,VWS V12.07,2013-06-01 05:15:00,
2013-06-01 00:20:00,53.4,49.3,29.31,NE,45,0.0,0.0,86,0.08,,,-99.99,VWS V12.07,2013-06-01 05:20:00,
2013-06-01 00:25:00,53.2,49.1,29.31,NE,45,0.0,0.0,86,0.08,,,-99.99,VWS V12.07,2013-06-01 05:25:00,
2013-06-01 00:30:00,53.2,49.1,29.31,NE,45,0.0,0.0,86,0.06,,,-99.99,VWS V12.07,2013-06-01 05:30:00,
2013-06-01 00:35:00,53.2,49.1,29.31,NE,45,0.0,0.0,86,0.06,,,-99.99,VWS V12.07,2013-06-01 05:35:00,
2013-06-01 00:40:00,53.0,48.9,29.30,NE,45,0.0,0.0,86,0.04,,,-99.99,VWS V12.07,2013-06-01 05:40:00,
2013-06-01 00:45:00,52.8,48.7,29.30,NE,45,0.0,1.3,86,0.02,,,-99.99,VWS V12.07,2013-06-01 05:45:00,
2013-06-01 00:50:00,52.8,48.7,29.30,NE,45,0.0,0.0,86,0.00,,,-99.99,VWS V12.07,2013-06-01 05:50:00,
2013-06-01 00:55:00,52.7,48.6,29.30,NE,45,0.0,0.0,86,0.00,,,-99.99,VWS V12.07,2013-06-01 05:55:00,
2013-06-01 01:00:00,52.5,48.4,29.31,NE,45,0.0,0.0,86,0.00,,,-99.99,VWS V12.07,2013-06-01 06:00:00,
2013-06-01 01:05:00,52.5,48.4,29.32,NE,45,0.0,0.0,86,0.00,,,-99.99,VWS V12.07,2013-06-01 06:05:00,
2013-06-01 01:10:00,52.5,48.8,29.32,NE,45,0.0,0.0,87,0.00,,,-99.99,VWS V12.07,2013-06-01 06:10:00,
2013-06-01 01:15:00,52.5,48.8,29.32,NE,45,0.0,0.0,87,0.00,,,-99.99,VWS V12.07,2013-06-01 06:15:00,
2013-06-01 01:20:00,52.3,48.5,29.31,NE,45,0.0,0.0,87,0.00,,,-99.99,VWS V12.07,2013-06-01 06:20:00,
2013-06-01 01:25:00,52.3,48.5,29.31,NE,45,0.0,0.0,87,0.00,,,-99.99,VWS V12.07,2013-06-01 06:25:00,
2013-06-01 01:30:00,52.3,48.5,29.31,NE,45,0.0,0.0,87,0.00,,,-99.99,VWS V12.07,2013-06-01 06:30:00,
2013-06-01 01:35:00,52.3,48.5,29.31,NE,45,0.0,0.0,87,0.00,,,-99.99,VWS V12.07,2013-06-01 06:35:00,
2013-06-01 01:40:00,52.3,48.5,29.31,NE,45,0.0,0.0,87,0.00,,,-99.99,VWS V12.07,2013-06-01 06:40:00,
2013-06-01 01:45:00,52.3,48.5,29.32,NNE,22,2.6,2.6,87,0.00,,,-99.99,VWS V12.07,2013-06-01 06:45:00,
2013-06-01 01:50:00,52.3,48.5,29.34,SW,225,1.3,2.6,87,0.00,,,-99.99,VWS V12.07,2013-06-01 06:50:00,
2013-06-01 01:55:00,52.5,49.0,29.33,SSW,202,0.0,5.3,88,0.00,,,-99.99,VWS V12.07,2013-06-01 06:55:00,
2013-06-01 02:00:00,52.8,49.3,29.32,SSW,202,0.0,5.3,88,0.00,,,-99.99,VWS V12.07,2013-06-01 07:00:00,
2013-06-01 02:05:00,52.8,49.3,29.32,SSW,202,0.0,0.0,88,0.00,,,-99.99,VWS V12.07,2013-06-01 07:05:00,
2013-06-01 02:15:00,52.8,49.3,29.31,SSW,202,0.0,0.0,88,0.00,,,-99.99,VWS V12.07,2013-06-01 07:15:00,
2013-06-01 02:20:00,52.8,49.3,29.31,SSW,202,0.0,0.0,88,0.00,,,-99.99,VWS V12.07,2013-06-01 07:20:00,
2013-06-01 02:25:00,52.8,49.3,29.31,SSW,202,0.0,0.0,88,0.00,,,-99.99,VWS V12.07,2013-06-01 07:25:00,
2013-06-01 02:30:00,52.7,49.2,29.30,SSW,202,0.0,0.0,88,0.00,,,-99.99,VWS V12.07,2013-06-01 07:30:00,
2013-06-01 02:40:00,52.3,48.9,29.30,SSW,202,0.0,0.0,88,0.00,,,-99.99,VWS V12.07,2013-06-01 07:40:00,
2013-06-01 02:45:00,52.1,48.7,29.30,SSW,202,0.0,0.0,88,0.00,,,-99.99,VWS V12.07,2013-06-01 07:45:00,
2013-06-01 02:50:00,51.9,48.5,29.30,SSW,202,0.0,0.0,88,0.00,,,-99.99,VWS V12.07,2013-06-01 07:50:00,
2013-06-01 02:55:00,51.9,48.5,29.29,SSW,202,0.0,0.0,88,0.00,,,-99.99,VWS V12.07,2013-06-01 07:55:00,
2013-06-01 03:00:00,51.6,48.2,29.29,SSW,202,0.0,0.0,88,0.00,,,-99.99,VWS V12.07,2013-06-01 08:00:00,
2013-06-01 03:05:00,51.6,48.2,29.28,SSW,202,0.0,0.0,88,0.00,,,-99.99,VWS V12.07,2013-06-01 08:05:00,
2013-06-01 03:10:00,51.6,48.2,29.27,SSW,202,0.0,0.0,88,0.00,,,-99.99,VWS V12.07,2013-06-01 08:10:00,
2013-06-01 03:15:00,51.6,48.2,29.27,SSW,202,0.0,0.0,88,0.00,,,-99.99,VWS V12.07,2013-06-01 08:15:00,
2013-06-01 03:20:00,51.6,48.2,29.27,SSW,202,0.0,0.0,88,0.00,,,-99.99,VWS V12.07,2013-06-01 08:20:00,
2013-06-01 03:25:00,51.6,48.2,29.26,SSW,202,0.0,0.0,88,0.00,,,-99.99,VWS V12.07,2013-06-01 08:25:00,
2013-06-01 03:30:00,51.6,48.2,29.26,SSW,202,0.0,0.0,88,0.00,,,-99.99,VWS V12.07,2013-06-01 08:30:00,
2013-06-01 03:35:00,51.6,48.2,29.26,SSW,202,0.0,0.0,88,0.00,,,-99.99,VWS V12.07,2013-06-01 08:35:00,
2013-06-01 03:40:00,51.6,48.2,29.26,SSW,202,0.0,0.0,88,0.00,,,-99.99,VWS V12.07,2013-06-01 08:40:00,
2013-06-01 03:45:00,51.6,48.2,29.26,SSW,202,0.0,0.0,88,0.00,,,-99.99,VWS V12.07,2013-06-01 08:45:00,
2013-06-01 03:50:00,51.6,48.2,29.26,SSW,202,0.0,0.0,88,0.00,,,-99.99,VWS V12.07,2013-06-01 08:50:00,
2013-06-01 03:55:00,51.6,48.2,29.26,SSW,202,0.0,0.0,88,0.00,,,-99.99,VWS V12.07,2013-06-01 08:55:00,
2013-06-01 04:00:00,51.6,48.2,29.26,SSW,202,0.0,0.0,88,0.00,,,-99.99,VWS V12.07,2013-06-01 09:00:00,
2013-06-01 04:05:00,51.6,48.2,29.25,SSW,202,0.0,0.0,88,0.00,,,-99.99,VWS V12.07,2013-06-01 09:05:00,
2013-06-01 04:10:00,51.6,48.2,29.25,SSW,202,0.0,0.0,88,0.00,,,-99.99,VWS V12.07,2013-06-01 09:10:00,
2013-06-01 04:15:00,51.4,48.0,29.25,SSW,202,0.0,0.0,88,0.00,,,-99.99,VWS V12.07,2013-06-01 09:15:00,
2013-06-01 04:20:00,51.4,48.0,29.25,SSW,202,0.0,0.0,88,0.00,,,-99.99,VWS V12.07,2013-06-01 09:20:00,
2013-06-01 04:25:00,51.4,48.0,29.25,SSW,202,0.0,0.0,88,0.00,,,-99.99,VWS V12.07,2013-06-01 09:25:00,
2013-06-01 04:30:00,51.4,48.0,29.25,SSW,202,0.0,0.0,88,0.00,,,-99.99,VWS V12.07,2013-06-01 09:30:00,
2013-06-01 04:35:00,51.4,48.0,29.25,SSW,202,0.0,0.0,88,0.00,,,-99.99,VWS V12.07,2013-06-01 09:35:00,
2013-06-01 04:40:00,51.2,48.1,29.25,SSW,202,0.0,0.0,89,0.00,,,-99.99,VWS V12.07,2013-06-01 09:40:00,
2013-06-01 04:45:00,51.2,48.1,29.24,SSW,202,0.0,0.0,89,0.00,,,-99.99,VWS V12.07,2013-06-01 09:45:00,
2013-06-01 04:50:00,51.2,48.1,29.25,SSW,202,0.0,0.0,89,0.00,,,-99.99,VWS V12.07,2013-06-01 09:50:00,
2013-06-01 04:55:00,51.0,47.9,29.25,SSW,202,0.0,0.0,89,0.00,,,-99.99,VWS V12.07,2013-06-01 09:55:00,
2013-06-01 05:00:00,51.0,47.9,29.24,SSW,202,0.0,0.0,89,0.00,,,-99.99,VWS V12.07,2013-06-01 10:00:00,
2013-06-01 05:05:00,51.0,47.9,29.24,SSW,202,0.0,0.0,89,0.00,,,-99.99,VWS V12.07,2013-06-01 10:05:00,
2013-06-01 05:10:00,51.0,47.9,29.24,SSW,202,0.0,0.0,89,0.00,,,-99.99,VWS V12.07,2013-06-01 10:10:00,
2013-06-01 05:15:00,50.9,47.8,29.24,SSW,202,0.0,0.0,89,0.00,,,-99.99,VWS V12.07,2013-06-01 10:15:00,
2013-06-01 05:20:00,50.9,47.8,29.24,SSW,202,0.0,0.0,89,0.00,,,-99.99,VWS V12.07,2013-06-01 10:20:00,
2013-06-01 05:25:00,50.7,47.6,29.24,SSW,202,0.0,0.0,89,0.00,,,-99.99,VWS V12.07,2013-06-01 10:25:00,
2013-06-01 05:30:00,50.7,47.6,29.25,SSW,202,0.0,0.0,89,0.00,,,-99.99,VWS V12.07,2013-06-01 10:30:00,
2013-06-01 05:35:00,50.7,47.6,29.25,SSW,202,0.0,0.0,89,0.00,,,-99.99,VWS V12.07,2013-06-01 10:35:00,
2013-06-01 05:40:00,50.7,47.6,29.26,SSW,202,0.0,0.0,89,0.00,,,-99.99,VWS V12.07,2013-06-01 10:40:00,
2013-06-01 05:45:00,50.7,47.6,29.26,SSW,202,0.0,0.0,89,0.00,,,-99.99,VWS V12.07,2013-06-01 10:45:00,
2013-06-01 05:50:00,50.9,47.8,29.26,SSW,202,0.0,0.0,89,0.00,,,-99.99,VWS V12.07,2013-06-01 10:50:00,
2013-06-01 06:00:00,52.8,49.7,29.27,SSW,202,0.0,0.0,89,0.00,,,-99.99,VWS V12.07,2013-06-01 11:00:00,
2013-06-01 06:10:00,53.7,50.8,29.28,SSW,202,0.0,0.0,90,0.00,,,-99.99,VWS V12.07,2013-06-01 11:10:00,
2013-06-01 06:15:00,54.3,51.1,29.28,SSW,202,0.0,0.0,89,0.00,,,-99.99,VWS V12.07,2013-06-01 11:15:00,
2013-06-01 06:20:00,54.3,51.1,29.28,SSW,202,0.0,0.0,89,0.00,,,-99.99,VWS V12.07,2013-06-01 11:20:00,
2013-06-01 06:25:00,54.5,51.0,29.28,SSW,202,0.0,0.0,88,0.00,,,-99.99,VWS V12.07,2013-06-01 11:25:00,
2013-06-01 06:30:00,54.5,51.0,29.28,West,270,0.0,0.0,88,0.00,,,-99.99,VWS V12.07,2013-06-01 11:30:00,
2013-06-01 06:35:00,54.5,51.0,29.29,West,270,0.0,0.0,88,0.00,,,-99.99,VWS V12.07,2013-06-01 11:35:00,
2013-06-01 06:40:00,54.3,50.8,29.28,West,270,0.0,0.0,88,0.00,,,-99.99,VWS V12.07,2013-06-01 11:40:00,
2013-06-01 06:45:00,54.1,50.6,29.28,West,270,0.0,0.0,88,0.00,,,-99.99,VWS V12.07,2013-06-01 11:45:00,
2013-06-01 06:50:00,53.9,50.4,29.28,West,270,0.0,0.0,88,0.00,,,-99.99,VWS V12.07,2013-06-01 11:50:00,
2013-06-01 06:55:00,53.9,50.4,29.28,West,270,0.0,0.0,88,0.00,,,-99.99,VWS V12.07,2013-06-01 11:55:00,
2013-06-01 07:00:00,53.9,50.4,29.28,West,270,0.0,0.0,88,0.00,,,-99.99,VWS V12.07,2013-06-01 12:00:00,
2013-06-01 07:05:00,53.7,50.2,29.28,West,270,0.0,0.0,88,0.00,,,-99.99,VWS V12.07,2013-06-01 12:05:00,
2013-06-01 07:10:00,53.7,50.2,29.27,West,270,0.0,0.0,88,0.00,,,-99.99,VWS V12.07,2013-06-01 12:10:00,
2013-06-01 07:15:00,53.7,50.2,29.27,West,270,0.0,0.0,88,0.00,,,-99.99,VWS V12.07,2013-06-01 12:15:00,
2013-06-01 07:20:00,53.9,50.4,29.27,West,270,0.0,0.0,88,0.00,,,-99.99,VWS V12.07,2013-06-01 12:20:00,
2013-06-01 07:25:00,53.9,50.4,29.27,West,270,0.0,0.0,88,0.00,,,-99.99,VWS V12.07,2013-06-01 12:25:00,
2013-06-01 07:30:00,53.9,50.4,29.28,West,270,0.0,0.0,88,0.00,,,-99.99,VWS V12.07,2013-06-01 12:30:00,
2013-06-01 07:35:00,54.1,50.6,29.27,West,270,0.0,0.0,88,0.00,,,-99.99,VWS V12.07,2013-06-01 12:35:00,
2013-06-01 07:40:00,54.1,50.9,29.28,West,270,0.0,0.0,89,0.00,,,-99.99,VWS V12.07,2013-06-01 12:40:00,
2013-06-01 07:45:00,54.1,50.9,29.27,West,270,0.0,0.0,89,0.00,,,-99.99,VWS V12.07,2013-06-01 12:45:00,
2013-06-01 07:50:00,54.1,50.9,29.28,West,270,0.0,0.0,89,0.00,,,-99.99,VWS V12.07,2013-06-01 12:50:00,
2013-06-01 07:55:00,54.1,50.9,29.28,West,270,0.0,0.0,89,0.00,,,-99.99,VWS V12.07,2013-06-01 12:55:00,
2013-06-01 08:00:00,54.1,50.9,29.28,West,270,0.0,0.0,89,0.00,,,-99.99,VWS V12.07,2013-06-01 13:00:00,
2013-06-01 08:05:00,54.1,50.9,29.28,West,270,0.0,0.0,89,0.00,,,-99.99,VWS V12.07,2013-06-01 13:05:00,
2013-06-01 08:10:00,54.3,51.1,29.28,West,270,0.0,0.0,89,0.00,,,-99.99,VWS V12.07,2013-06-01 13:10:00,
2013-06-01 08:15:00,54.1,50.9,29.28,West,270,0.0,0.0,89,0.00,,,-99.99,VWS V12.07,2013-06-01 13:15:00,
2013-06-01 08:20:00,54.1,50.9,29.28,West,270,0.0,0.0,89,0.00,,,-99.99,VWS V12.07,2013-06-01 13:20:00,
2013-06-01 08:25:00,54.1,50.9,29.28,West,270,0.0,0.0,89,0.00,,,-99.99,VWS V12.07,2013-06-01 13:25:00,
2013-06-01 08:30:00,54.1,50.9,29.29,West,270,0.0,0.0,89,0.00,,,-99.99,VWS V12.07,2013-06-01 13:30:00,
2013-06-01 08:35:00,54.1,50.9,29.28,West,270,0.0,0.0,89,0.00,,,-99.99,VWS V12.07,2013-06-01 13:35:00,
2013-06-01 08:40:00,54.1,50.9,29.29,West,270,0.0,0.0,89,0.00,,,-99.99,VWS V12.07,2013-06-01 13:40:00,
2013-06-01 08:45:00,54.1,50.9,29.29,West,270,0.0,0.0,89,0.00,,,-99.99,VWS V12.07,2013-06-01 13:45:00,
2013-06-01 08:50:00,54.1,50.9,29.29,West,270,0.0,0.0,89,0.00,,,-99.99,VWS V12.07,2013-06-01 13:50:00,
2013-06-01 08:55:00,54.1,50.9,29.29,West,270,0.0,0.0,89,0.00,,,-99.99,VWS V12.07,2013-06-01 13:55:00,
2013-06-01 09:00:00,54.1,50.9,29.29,West,270,0.0,0.0,89,0.00,,,-99.99,VWS V12.07,2013-06-01 14:00:00,
2013-06-01 09:05:00,54.3,51.1,29.29,West,270,0.0,0.0,89,0.00,,,-99.99,VWS V12.07,2013-06-01 14:05:00,
2013-06-01 09:10:00,54.3,51.1,29.29,West,270,0.0,0.0,89,0.00,,,-99.99,VWS V12.07,2013-06-01 14:10:00,
2013-06-01 09:15:00,54.3,51.4,29.29,West,270,0.0,0.0,90,0.00,,,-99.99,VWS V12.07,2013-06-01 14:15:00,
2013-06-01 09:20:00,54.3,51.4,29.28,West,270,0.0,0.0,90,0.00,,,-99.99,VWS V12.07,2013-06-01 14:20:00,
2013-06-01 09:25:00,54.3,51.4,29.28,West,270,0.0,0.0,90,0.00,,,-99.99,VWS V12.07,2013-06-01 14:25:00,
2013-06-01 09:30:00,54.5,51.6,29.28,West,270,0.0,0.0,90,0.00,,,-99.99,VWS V12.07,2013-06-01 14:30:00,
2013-06-01 09:35:00,54.5,51.6,29.28,West,270,0.0,0.0,90,0.00,,,-99.99,VWS V12.07,2013-06-01 14:35:00,
2013-06-01 09:40:00,54.6,51.7,29.28,West,270,0.0,0.0,90,0.00,,,-99.99,VWS V12.07,2013-06-01 14:40:00,
2013-06-01 09:45:00,55.0,52.1,29.27,West,270,0.0,0.0,90,0.00,,,-99.99,VWS V12.07,2013-06-01 14:45:00,
2013-06-01 09:50:00,55.0,52.1,29.27,West,270,0.0,0.0,90,0.00,,,-99.99,VWS V12.07,2013-06-01 14:50:00,
2013-06-01 09:55:00,55.2,52.3,29.27,West,270,0.0,0.0,90,0.00,,,-99.99,VWS V12.07,2013-06-01 14:55:00,
2013-06-01 10:00:00,55.5,52.6,29.28,West,270,0.0,0.0,90,0.00,,,-99.99,VWS V12.07,2013-06-01 15:00:00,
2013-06-01 10:05:00,55.7,52.8,29.28,West,270,0.0,0.0,90,0.00,,,-99.99,VWS V12.07,2013-06-01 15:05:00,
2013-06-01 10:10:00,55.9,53.0,29.28,West,270,0.0,0.0,90,0.00,,,-99.99,VWS V12.07,2013-06-01 15:10:00,
2013-06-01 10:15:00,56.4,53.5,29.28,West,270,0.0,0.0,90,0.00,,,-99.99,VWS V12.07,2013-06-01 15:15:00,
2013-06-01 10:20:00,56.8,53.9,29.28,West,270,0.0,0.0,90,0.00,,,-99.99,VWS V12.07,2013-06-01 15:20:00,
2013-06-01 10:25:00,57.0,54.1,29.28,West,270,0.0,0.0,90,0.00,,,-99.99,VWS V12.07,2013-06-01 15:25:00,
2013-06-01 10:30:00,57.7,54.8,29.28,West,270,0.0,0.0,90,0.00,,,-99.99,VWS V12.07,2013-06-01 15:30:00,
2013-06-01 10:35:00,58.1,55.2,29.29,West,270,0.0,0.0,90,0.00,,,-99.99,VWS V12.07,2013-06-01 15:35:00,
2013-06-01 10:40:00,58.8,55.9,29.29,West,270,0.0,0.0,90,0.00,,,-99.99,VWS V12.07,2013-06-01 15:40:00,
2013-06-01 10:45:00,58.8,55.9,29.29,West,270,0.0,0.0,90,0.00,,,-99.99,VWS V12.07,2013-06-01 15:45:00,
2013-06-01 10:50:00,59.0,56.1,29.29,West,270,0.0,0.0,90,0.00,,,-99.99,VWS V12.07,2013-06-01 15:50:00,
2013-06-01 10:55:00,59.1,55.9,29.29,West,270,0.0,0.0,89,0.00,,,-99.99,VWS V12.07,2013-06-01 15:55:00,
2013-06-01 11:00:00,59.5,56.3,29.29,West,270,0.0,0.0,89,0.00,,,-99.99,VWS V12.07,2013-06-01 16:00:00,
2013-06-01 11:05:00,59.7,56.5,29.29,West,270,0.0,0.0,89,0.00,,,-99.99,VWS V12.07,2013-06-01 16:05:00,
2013-06-01 11:10:00,59.9,56.3,29.29,West,270,0.0,0.0,88,0.00,,,-99.99,VWS V12.07,2013-06-01 16:10:00,
2013-06-01 11:15:00,60.0,56.1,29.29,West,270,0.0,0.0,87,0.00,,,-99.99,VWS V12.07,2013-06-01 16:15:00,
2013-06-01 11:20:00,60.0,56.1,29.29,West,270,0.0,0.0,87,0.00,,,-99.99,VWS V12.07,2013-06-01 16:20:00,
2013-06-01 11:25:00,60.0,56.1,29.30,West,270,0.0,0.0,87,0.00,,,-99.99,VWS V12.07,2013-06-01 16:25:00,
2013-06-01 11:30:00,60.0,56.1,29.30,West,270,0.0,0.0,87,0.00,,,-99.99,VWS V12.07,2013-06-01 16:30:00,
2013-06-01 11:35:00,60.0,56.1,29.30,SW,225,0.0,0.0,87,0.00,,,-99.99,VWS V12.07,2013-06-01 16:35:00,
2013-06-01 11:40:00,59.9,55.7,29.30,SW,225,0.0,0.0,86,0.00,,,-99.99,VWS V12.07,2013-06-01 16:40:00,
2013-06-01 11:45:00,59.7,55.5,29.29,SW,225,0.0,0.0,86,0.00,,,-99.99,VWS V12.07,2013-06-01 16:45:00,
2013-06-01 11:50:00,59.7,55.5,29.29,SW,225,0.0,1.3,86,0.00,,,-99.99,VWS V12.07,2013-06-01 16:50:00,
2013-06-01 11:55:00,59.7,55.5,29.29,SW,225,0.0,1.3,86,0.00,,,-99.99,VWS V12.07,2013-06-01 16:55:00,
2013-06-01 12:00:00,59.7,55.5,29.29,SW,225,6.2,6.2,86,0.00,,,-99.99,VWS V12.07,2013-06-01 17:00:00,
2013-06-01 12:05:00,59.7,55.5,29.29,SW,225,0.0,6.2,86,0.00,,,-99.99,VWS V12.07,2013-06-01 17:05:00,
2013-06-01 12:10:00,59.9,55.7,29.28,SW,225,0.0,6.2,86,0.00,,,-99.99,VWS V12.07,2013-06-01 17:10:00,
2013-06-01 12:15:00,60.0,55.8,29.28,SW,225,2.4,6.2,86,0.00,,,-99.99,VWS V12.07,2013-06-01 17:15:00,
2013-06-01 12:25:00,60.4,55.9,29.28,SW,225,1.5,2.4,85,0.00,,,-99.99,VWS V12.07,2013-06-01 17:25:00,
2013-06-01 12:30:00,60.6,56.1,29.28,SW,225,0.0,2.6,85,0.00,,,-99.99,VWS V12.07,2013-06-01 17:30:00,
2013-06-01 12:35:00,60.9,56.4,29.28,SW,225,0.6,2.0,85,0.00,,,-99.99,VWS V12.07,2013-06-01 17:35:00,
2013-06-01 12:40:00,61.3,56.4,29.28,SW,225,3.1,3.1,84,0.00,,,-99.99,VWS V12.07,2013-06-01 17:40:00,
2013-06-01 12:45:00,62.2,57.0,29.27,SW,225,2.0,3.1,83,0.00,,,-99.99,VWS V12.07,2013-06-01 17:45:00,
2013-06-01 12:50:00,62.6,57.0,29.27,SW,225,0.0,2.4,82,0.00,,,-99.99,VWS V12.07,2013-06-01 17:50:00,
2013-06-01 12:55:00,62.7,56.8,29.27,SW,225,0.0,2.4,81,0.00,,,-99.99,VWS V12.07,2013-06-01 17:55:00,
2013-06-01 13:00:00,62.9,56.6,29.27,SW,225,4.0,4.0,80,0.00,,,-99.99,VWS V12.07,2013-06-01 18:00:00,
2013-06-01 13:05:00,62.7,56.5,29.27,SW,225,2.6,4.0,80,0.00,,,-99.99,VWS V12.07,2013-06-01 18:05:00,
2013-06-01 13:10:00,62.7,56.5,29.27,SW,225,0.0,4.0,80,0.00,,,-99.99,VWS V12.07,2013-06-01 18:10:00,
2013-06-01 13:15:00,62.7,56.5,29.26,SW,225,0.0,4.0,80,0.00,,,-99.99,VWS V12.07,2013-06-01 18:15:00,
2013-06-01 13:20:00,62.9,56.6,29.26,SW,225,0.0,1.5,80,0.00,,,-99.99,VWS V12.07,2013-06-01 18:20:00,
2013-06-01 13:25:00,62.9,56.6,29.26,SW,225,0.0,1.5,80,0.00,,,-99.99,VWS V12.07,2013-06-01 18:25:00,
2013-06-01 13:30:00,62.9,56.6,29.27,SW,225,1.1,1.5,80,0.00,,,-99.99,VWS V12.07,2013-06-01 18:30:00,
2013-06-01 13:35:00,62.7,56.1,29.27,SW,225,0.2,1.1,79,0.00,,,-99.99,VWS V12.07,2013-06-01 18:35:00,
2013-06-01 13:40:00,62.7,56.1,29.26,SW,225,0.0,1.1,79,0.00,,,-99.99,VWS V12.07,2013-06-01 18:40:00,
2013-06-01 13:45:00,62.4,56.2,29.27,SW,225,0.0,1.1,80,0.00,,,-99.99,VWS V12.07,2013-06-01 18:45:00,
2013-06-01 13:50:00,62.4,56.2,29.26,SW,225,0.0,0.0,80,0.00,,,-99.99,VWS V12.07,2013-06-01 18:50:00,
2013-06-01 13:55:00,62.4,56.2,29.26,SW,225,0.0,0.0,80,0.00,,,-99.99,VWS V12.07,2013-06-01 18:55:00,
2013-06-01 14:00:00,62.4,56.2,29.26,SW,225,1.1,1.1,80,0.00,,,-99.99,VWS V12.07,2013-06-01 19:00:00,
2013-06-01 14:05:00,62.4,56.2,29.26,SW,225,3.3,3.3,80,0.00,,,-99.99,VWS V12.07,2013-06-01 19:05:00,
2013-06-01 14:10:00,62.7,56.5,29.26,SW,225,0.0,3.3,80,0.00,,,-99.99,VWS V12.07,2013-06-01 19:10:00,
2013-06-01 14:15:00,63.1,56.8,29.26,SW,225,0.0,4.0,80,0.00,,,-99.99,VWS V12.07,2013-06-01 19:15:00,
2013-06-01 14:20:00,63.3,57.0,29.26,SW,225,2.4,2.4,80,0.00,,,-99.99,VWS V12.07,2013-06-01 19:20:00,
2013-06-01 14:25:00,63.6,57.3,29.26,SW,225,0.0,2.4,80,0.00,,,-99.99,VWS V12.07,2013-06-01 19:25:00,
2013-06-01 14:30:00,64.0,57.4,29.26,SW,225,0.0,2.4,79,0.00,,,-99.99,VWS V12.07,2013-06-01 19:30:00,
2013-06-01 14:35:00,64.5,57.8,29.25,SW,225,3.5,3.5,79,0.00,,,-99.99,VWS V12.07,2013-06-01 19:35:00,
2013-06-01 14:40:00,64.9,58.2,29.25,NE,45,0.0,3.5,79,0.00,,,-99.99,VWS V12.07,2013-06-01 19:40:00,
2013-06-01 14:45:00,65.3,58.6,29.25,NNE,22,0.4,3.5,79,0.00,,,-99.99,VWS V12.07,2013-06-01 19:45:00,
2013-06-01 14:50:00,65.6,58.6,29.25,NNE,22,0.0,0.4,78,0.00,,,-99.99,VWS V12.07,2013-06-01 19:50:00,
2013-06-01 14:55:00,66.0,58.6,29.25,NNE,22,1.3,4.0,77,0.00,,,-99.99,VWS V12.07,2013-06-01 19:55:00,
2013-06-01 15:00:00,66.5,58.7,29.25,WSW,248,0.0,4.0,76,0.00,,,-99.99,VWS V12.07,2013-06-01 20:00:00,
2013-06-01 15:05:00,66.7,58.5,29.25,West,270,2.0,2.0,75,0.00,,,-99.99,VWS V12.07,2013-06-01 20:05:00,
2013-06-01 15:10:00,66.9,58.7,29.25,NW,315,4.6,4.6,75,0.00,,,-99.99,VWS V12.07,2013-06-01 20:10:00,
2013-06-01 15:15:00,67.2,58.3,29.25,WNW,292,6.0,6.0,73,0.00,,,-99.99,VWS V12.07,2013-06-01 20:15:00,
2013-06-01 15:20:00,67.2,57.9,29.25,NNE,22,2.2,6.0,72,0.00,,,-99.99,VWS V12.07,2013-06-01 20:20:00,
2013-06-01 15:25:00,67.2,57.5,29.25,West,270,1.7,6.0,71,0.00,,,-99.99,VWS V12.07,2013-06-01 20:25:00,
2013-06-01 15:30:00,67.2,57.5,29.25,SW,225,0.0,6.0,71,0.00,,,-99.99,VWS V12.07,2013-06-01 20:30:00,
2013-06-01 15:35:00,67.1,57.8,29.25,NNE,22,0.0,1.1,72,0.00,,,-99.99,VWS V12.07,2013-06-01 20:35:00,
2013-06-01 15:40:00,67.1,57.8,29.26,WNW,292,1.3,1.3,72,0.00,,,-99.99,VWS V12.07,2013-06-01 20:40:00,
2013-06-01 15:45:00,67.1,57.8,29.26,WSW,248,0.0,1.3,72,0.00,,,-99.99,VWS V12.07,2013-06-01 20:45:00,
2013-06-01 15:50:00,66.9,57.6,29.26,SW,225,0.8,0.8,72,0.00,,,-99.99,VWS V12.07,2013-06-01 20:50:00,
2013-06-01 15:55:00,66.5,57.2,29.26,NNE,22,0.0,0.8,72,0.00,,,-99.99,VWS V12.07,2013-06-01 20:55:00,
2013-06-01 16:00:00,66.2,56.9,29.26,NNW,338,0.6,0.8,72,0.00,,,-99.99,VWS V12.07,2013-06-01 21:00:00,
2013-06-01 16:05:00,66.0,57.1,29.26,NE,45,0.6,0.6,73,0.00,,,-99.99,VWS V12.07,2013-06-01 21:05:00,
2013-06-01 16:10:00,65.4,56.5,29.26,NNE,22,0.8,5.3,73,0.00,,,-99.99,VWS V12.07,2013-06-01 21:10:00,
2013-06-01 16:15:00,64.7,55.5,29.26,SW,225,1.7,5.3,72,0.00,,,-99.99,VWS V12.07,2013-06-01 21:15:00,
2013-06-01 16:20:00,64.4,55.2,29.26,NW,315,1.1,1.7,72,0.00,,,-99.99,VWS V12.07,2013-06-01 21:20:00,
2013-06-01 16:25:00,64.0,54.8,29.26,SSW,202,1.5,2.4,72,0.00,,,-99.99,VWS V12.07,2013-06-01 21:25:00,
2013-06-01 16:30:00,63.3,54.1,29.26,SW,225,0.8,2.4,72,0.00,,,-99.99,VWS V12.07,2013-06-01 21:30:00,
2013-06-01 16:35:00,63.1,53.9,29.26,NW,315,2.6,2.6,72,0.00,,,-99.99,VWS V12.07,2013-06-01 21:35:00,
2013-06-01 16:40:00,62.7,53.5,29.26,NE,45,2.9,2.9,72,0.00,,,-99.99,VWS V12.07,2013-06-01 21:40:00,
2013-06-01 16:45:00,62.4,53.3,29.26,West,270,0.0,2.9,72,0.00,,,-99.99,VWS V12.07,2013-06-01 21:45:00,
2013-06-01 16:50:00,62.0,52.9,29.26,WNW,292,4.9,4.9,72,0.00,,,-99.99,VWS V12.07,2013-06-01 21:50:00,
2013-06-01 16:55:00,61.7,53.0,29.26,West,270,0.0,8.5,73,0.00,,,-99.99,VWS V12.07,2013-06-01 21:55:00,
2013-06-01 17:00:00,61.5,53.2,29.26,WSW,248,0.0,8.5,74,0.00,,,-99.99,VWS V12.07,2013-06-01 22:00:00,
2013-06-01 17:05:00,61.8,53.4,29.26,WSW,248,0.0,2.6,74,0.00,,,-99.99,VWS V12.07,2013-06-01 22:05:00,
2013-06-01 17:10:00,62.2,53.8,29.26,West,270,1.3,4.9,74,0.00,,,-99.99,VWS V12.07,2013-06-01 22:10:00,
2013-06-01 17:15:00,62.4,53.6,29.27,NE,45,0.0,5.5,73,0.00,,,-99.99,VWS V12.07,2013-06-01 22:15:00,
2013-06-01 17:20:00,62.4,54.0,29.27,NE,45,1.1,1.1,74,0.00,,,-99.99,VWS V12.07,2013-06-01 22:20:00,
2013-06-01 17:25:00,62.4,54.0,29.27,NE,45,0.0,1.1,74,0.00,,,-99.99,VWS V12.07,2013-06-01 22:25:00,
2013-06-01 17:30:00,62.6,54.2,29.27,NE,45,0.0,1.1,74,0.00,,,-99.99,VWS V12.07,2013-06-01 22:30:00,
2013-06-01 17:35:00,62.7,54.3,29.27,NE,45,1.5,1.5,74,0.00,,,-99.99,VWS V12.07,2013-06-01 22:35:00,
2013-06-01 17:40:00,62.7,54.3,29.27,NE,45,3.5,3.5,74,0.00,,,-99.99,VWS V12.07,2013-06-01 22:40:00,
2013-06-01 17:45:00,62.7,53.9,29.27,NE,45,0.0,3.5,73,0.00,,,-99.99,VWS V12.07,2013-06-01 22:45:00,
2013-06-01 17:50:00,62.7,53.9,29.27,NE,45,0.0,0.0,73,0.00,,,-99.99,VWS V12.07,2013-06-01 22:50:00,
2013-06-01 17:55:00,62.7,53.9,29.28,WSW,248,2.6,2.6,73,0.00,,,-99.99,VWS V12.07,2013-06-01 22:55:00,
2013-06-01 18:00:00,62.6,53.8,29.28,NNW,338,0.0,2.6,73,0.00,,,-99.99,VWS V12.07,2013-06-01 23:00:00,
2013-06-01 18:05:00,62.4,54.0,29.28,NW,315,0.0,0.0,74,0.00,,,-99.99,VWS V12.07,2013-06-01 23:05:00,
2013-06-01 18:10:00,62.2,53.8,29.28,NW,315,0.0,2.4,74,0.00,,,-99.99,VWS V12.07,2013-06-01 23:10:00,
2013-06-01 18:15:00,61.8,53.8,29.28,NNE,22,1.7,2.4,75,0.00,,,-99.99,VWS V12.07,2013-06-01 23:15:00,
2013-06-01 18:20:00,61.8,54.2,29.28,NNW,338,0.0,3.8,76,0.00,,,-99.99,VWS V12.07,2013-06-01 23:20:00,
2013-06-01 18:25:00,61.7,54.4,29.28,NW,315,0.0,4.0,77,0.00,,,-99.99,VWS V12.07,2013-06-01 23:25:00,
2013-06-01 18:30:00,61.3,54.0,29.29,NE,45,4.0,5.3,77,0.00,,,-99.99,VWS V12.07,2013-06-01 23:30:00,
2013-06-01 18:35:00,60.9,53.7,29.29,WNW,292,3.1,4.0,77,0.00,,,-99.99,VWS V12.07,2013-06-01 23:35:00,
2013-06-01 18:40:00,60.6,53.7,29.29,NE,45,3.5,9.1,78,0.00,,,-99.99,VWS V12.07,2013-06-01 23:40:00,
2013-06-01 18:45:00,59.7,52.8,29.30,NE,45,1.1,9.1,78,0.00,,,-99.99,VWS V12.07,2013-06-01 23:45:00,
2013-06-01 18:50:00,59.1,52.3,29.30,North,0,2.0,2.0,78,0.00,,,-99.99,VWS V12.07,2013-06-01 23:50:00,
2013-06-01 18:55:00,58.6,52.1,29.30,NNE,22,7.8,7.8,79,0.00,,,-99.99,VWS V12.07,2013-06-01 23:55:00,
2013-06-01 19:00:00,58.1,51.6,29.30,NE,45,0.0,7.8,79,0.00,,,-99.99,VWS V12.07,2013-06-02 00:00:00,
2013-06-01 19:05:00,57.7,51.6,29.30,NNE,22,1.1,1.1,80,0.00,,,-99.99,VWS V12.07,2013-06-02 00:05:00,
2013-06-01 19:10:00,57.3,51.2,29.31,NE,45,1.3,3.1,80,0.00,,,-99.99,VWS V12.07,2013-06-02 00:10:00,
2013-06-01 19:15:00,57.0,51.2,29.31,ENE,68,3.1,4.9,81,0.00,,,-99.99,VWS V12.07,2013-06-02 00:15:00,
2013-06-01 19:20:00,57.0,51.2,29.31,North,0,0.0,3.1,81,0.00,,,-99.99,VWS V12.07,2013-06-02 00:20:00,
2013-06-01 19:25:00,56.4,50.7,29.31,NNE,22,5.8,6.2,81,0.00,,,-99.99,VWS V12.07,2013-06-02 00:25:00,
2013-06-01 19:30:00,56.1,50.4,29.31,NNE,22,7.3,7.3,81,0.00,,,-99.99,VWS V12.07,2013-06-02 00:30:00,
2013-06-01 19:35:00,55.7,50.0,29.31,North,0,0.0,7.3,81,0.00,,,-99.99,VWS V12.07,2013-06-02 00:35:00,
2013-06-01 19:40:00,55.2,49.2,29.32,NE,45,2.4,7.8,80,0.00,,,-99.99,VWS V12.07,2013-06-02 00:40:00,
2013-06-01 19:45:00,54.3,48.3,29.32,NE,45,6.9,7.8,80,0.00,,,-99.99,VWS V12.07,2013-06-02 00:45:00,
2013-06-01 19:50:00,53.7,47.7,29.32,NNE,22,0.0,6.9,80,0.00,,,-99.99,VWS V12.07,2013-06-02 00:50:00,
2013-06-01 19:55:00,52.5,46.5,29.33,NE,45,0.0,6.9,80,0.00,,,-99.99,VWS V12.07,2013-06-02 00:55:00,
2013-06-01 20:00:00,51.8,45.8,29.33,ENE,68,2.2,6.9,80,0.00,,,-99.99,VWS V12.07,2013-06-02 01:00:00,
2013-06-01 20:05:00,51.2,45.2,29.34,NNE,22,0.0,2.2,80,0.00,,,-99.99,VWS V12.07,2013-06-02 01:05:00,
2013-06-01 20:10:00,50.1,44.2,29.34,ENE,68,1.3,2.2,80,0.00,,,-99.99,VWS V12.07,2013-06-02 01:10:00,
2013-06-01 20:15:00,49.6,44.0,29.34,NW,315,0.0,6.4,81,0.00,,,-99.99,VWS V12.07,2013-06-02 01:15:00,
2013-06-01 20:20:00,48.9,43.3,29.34,NE,45,2.4,2.4,81,0.00,,,-99.99,VWS V12.07,2013-06-02 01:20:00,
2013-06-01 20:25:00,48.3,42.8,29.34,NE,45,0.0,2.4,81,0.00,,,-99.99,VWS V12.07,2013-06-02 01:25:00,
2013-06-01 20:30:00,47.6,42.4,29.34,NNE,22,0.0,2.4,82,0.00,,,-99.99,VWS V12.07,2013-06-02 01:30:00,
2013-06-01 20:35:00,47.1,41.9,29.35,NNE,22,6.4,6.4,82,0.00,,,-99.99,VWS V12.07,2013-06-02 01:35:00,
2013-06-01 20:40:00,46.5,41.3,29.35,West,270,0.0,6.4,82,0.00,,,-99.99,VWS V12.07,2013-06-02 01:40:00,
2013-06-01 20:45:00,46.2,41.3,29.35,NE,45,0.6,6.4,83,0.00,,,-99.99,VWS V12.07,2013-06-02 01:45:00,
2013-06-01 20:50:00,46.0,41.1,29.35,NE,45,0.8,0.8,83,0.00,,,-99.99,VWS V12.07,2013-06-02 01:50:00,
2013-06-01 20:55:00,45.5,40.7,29.35,ENE,68,0.0,6.2,83,0.00,,,-99.99,VWS V12.07,2013-06-02 01:55:00,
2013-06-01 21:00:00,45.1,40.2,29.35,NE,45,0.0,6.2,83,0.00,,,-99.99,VWS V12.07,2013-06-02 02:00:00,
2013-06-01 21:05:00,44.9,40.1,29.36,NNW,338,0.8,3.3,83,0.00,,,-99.99,VWS V12.07,2013-06-02 02:05:00,
2013-06-01 21:10:00,44.4,39.9,29.36,NW,315,4.4,8.0,84,0.00,,,-99.99,VWS V12.07,2013-06-02 02:10:00,
2013-06-01 21:15:00,44.2,39.7,29.36,NNW,338,0.0,8.0,84,0.00,,,-99.99,VWS V12.07,2013-06-02 02:15:00,
2013-06-01 21:20:00,44.0,39.5,29.36,NE,45,0.8,1.5,84,0.00,,,-99.99,VWS V12.07,2013-06-02 02:20:00,
2013-06-01 21:25:00,43.8,39.3,29.36,NE,45,0.0,1.5,84,0.00,,,-99.99,VWS V12.07,2013-06-02 02:25:00,
2013-06-01 21:30:00,43.5,39.0,29.36,NE,45,0.0,1.5,84,0.00,,,-99.99,VWS V12.07,2013-06-02 02:30:00,
2013-06-01 21:35:00,43.5,39.0,29.37,NE,45,2.6,5.1,84,0.00,,,-99.99,VWS V12.07,2013-06-02 02:35:00,
2013-06-01 21:40:00,43.3,38.8,29.37,NNE,22,1.1,5.1,84,0.00,,,-99.99,VWS V12.07,2013-06-02 02:40:00,
2013-06-01 21:45:00,43.1,38.9,29.37,NNE,22,0.8,5.1,85,0.00,,,-99.99,VWS V12.07,2013-06-02 02:45:00,
2013-06-01 21:50:00,42.9,38.7,29.37,NNW,338,2.4,2.4,85,0.00,,,-99.99,VWS V12.07,2013-06-02 02:50:00,
2013-06-01 21:55:00,42.9,38.7,29.38,WNW,292,1.3,9.3,85,0.00,,,-99.99,VWS V12.07,2013-06-02 02:55:00,
2013-06-01 22:00:00,42.6,38.4,29.38,NE,45,6.7,11.4,85,0.00,,,-99.99,VWS V12.07,2013-06-02 03:00:00,
2013-06-01 22:05:00,42.6,38.4,29.38,NNE,22,5.8,6.7,85,0.00,,,-99.99,VWS V12.07,2013-06-02 03:05:00,
2013-06-01 22:10:00,42.4,38.2,29.38,WNW,292,0.0,6.7,85,0.00,,,-99.99,VWS V12.07,2013-06-02 03:10:00,
2013-06-01 22:15:00,42.2,38.0,29.39,NE,45,4.9,6.7,85,0.00,,,-99.99,VWS V12.07,2013-06-02 03:15:00,
2013-06-01 22:20:00,42.0,37.8,29.39,NNW,338,1.5,4.9,85,0.00,,,-99.99,VWS V12.07,2013-06-02 03:20:00,
2013-06-01 22:25:00,42.0,37.8,29.39,West,270,2.6,4.9,85,0.00,,,-99.99,VWS V12.07,2013-06-02 03:25:00,
2013-06-01 22:30:00,41.9,37.7,29.39,NE,45,6.0,6.0,85,0.00,,,-99.99,VWS V12.07,2013-06-02 03:30:00,
2013-06-01 22:35:00,41.7,37.5,29.39,NNW,338,2.0,6.0,85,0.00,,,-99.99,VWS V12.07,2013-06-02 03:35:00,
2013-06-01 22:40:00,41.7,37.5,29.40,ENE,68,1.1,10.7,85,0.00,,,-99.99,VWS V12.07,2013-06-02 03:40:00,
2013-06-01 22:45:00,41.5,37.3,29.39,NNE,22,3.3,10.7,85,0.00,,,-99.99,VWS V12.07,2013-06-02 03:45:00,
2013-06-01 22:50:00,41.3,37.1,29.40,NE,45,5.8,5.8,85,0.00,,,-99.99,VWS V12.07,2013-06-02 03:50:00,
2013-06-01 22:55:00,41.1,36.9,29.40,NE,45,4.9,5.8,85,0.00,,,-99.99,VWS V12.07,2013-06-02 03:55:00,
2013-06-01 23:00:00,41.1,36.9,29.40,North,0,2.0,5.8,85,0.00,,,-99.99,VWS V12.07,2013-06-02 04:00:00,
2013-06-01 23:05:00,41.1,37.2,29.40,NE,45,0.0,2.6,86,0.00,,,-99.99,VWS V12.07,2013-06-02 04:05:00,
2013-06-01 23:10:00,41.1,37.2,29.40,NNW,338,3.1,6.9,86,0.00,,,-99.99,VWS V12.07,2013-06-02 04:10:00,
2013-06-01 23:15:00,41.1,37.2,29.40,NNE,22,5.3,6.9,86,0.00,,,-99.99,VWS V12.07,2013-06-02 04:15:00,
2013-06-01 23:20:00,41.0,37.1,29.40,North,0,0.0,6.2,86,0.00,,,-99.99,VWS V12.07,2013-06-02 04:20:00,
2013-06-01 23:25:00,41.0,37.1,29.40,NE,45,2.4,6.2,86,0.00,,,-99.99,VWS V12.07,2013-06-02 04:25:00,
2013-06-01 23:30:00,40.8,36.9,29.41,West,270,0.0,6.2,86,0.00,,,-99.99,VWS V12.07,2013-06-02 04:30:00,
2013-06-01 23:35:00,40.8,36.9,29.41,West,270,2.6,2.6,86,0.00,,,-99.99,VWS V12.07,2013-06-02 04:35:00,
2013-06-01 23:40:00,40.8,36.9,29.41,West,270,2.6,5.1,86,0.00,,,-99.99,VWS V12.07,2013-06-02 04:40:00,
2013-06-01 23:45:00,40.8,36.9,29.41,NNE,22,2.9,5.1,86,0.00,,,-99.99,VWS V12.07,2013-06-02 04:45:00,
2013-06-01 23:50:00,40.6,36.8,29.42,West,270,0.0,2.9,86,0.00,,,-99.99,VWS V12.07,2013-06-02 04:50:00,